Time;durP1;ratioP1;P1;durP2;ratioP2;P2;SDS_P1;SDS_P2;PMS_P1;PMS_P2;Temp;Humidity;BMP_temperature;BMP_pressure;BME280_temperature;BME280_humidity;BME280_pressure;Samples;Min_cycle;Max_cycle;Signal;HPM_P1;HPM_P2
2023/09/04 00:00:07;;;;;;;7.63;5.70;;;15.30;99.90;;;;;;5137186;27;20047;-79
2023/09/04 00:02:33;;;;;;;7.97;5.40;;;15.30;99.90;;;;;;5155613;27;20051;-79
2023/09/04 00:04:59;;;;;;;6.80;5.63;;;15.30;99.90;;;;;;5136940;27;20069;-79
2023/09/04 00:07:24;;;;;;;6.90;5.80;;;15.20;99.90;;;;;;5137328;27;20038;-79
2023/09/04 00:09:50;;;;;;;6.80;5.83;;;15.20;99.90;;;;;;5119921;27;20057;-79
2023/09/04 00:12:16;;;;;;;7.50;5.43;;;15.20;99.90;;;;;;5136922;27;20047;-78
2023/09/04 00:14:42;;;;;;;8.73;5.93;;;15.20;99.90;;;;;;5136619;27;20070;-79
2023/09/04 00:17:07;;;;;;;8.90;5.90;;;15.10;99.90;;;;;;5103354;27;20487;-79
2023/09/04 00:19:34;;;;;;;7.43;5.80;;;15.10;99.90;;;;;;5155294;27;20034;-79
2023/09/04 00:22:00;;;;;;;7.57;5.37;;;15.10;99.90;;;;;;5136792;27;20054;-79
2023/09/04 00:24:26;;;;;;;6.13;5.30;;;15.10;99.90;;;;;;5136817;27;20077;-79
2023/09/04 00:26:52;;;;;;;8.27;6.47;;;15.10;99.90;;;;;;5136761;27;20050;-79
2023/09/04 00:29:17;;;;;;;6.63;5.30;;;15.00;99.90;;;;;;5136580;27;20106;-78
2023/09/04 00:31:43;;;;;;;6.33;5.20;;;15.00;99.90;;;;;;5119380;27;20054;-79
2023/09/04 00:34:10;;;;;;;6.37;5.20;;;15.00;99.90;;;;;;5102043;27;20043;-79
2023/09/04 00:36:35;;;;;;;7.93;5.73;;;15.00;99.90;;;;;;5154627;27;20452;-79
2023/09/04 00:39:01;;;;;;;8.70;6.07;;;15.10;99.90;;;;;;5136347;27;20111;-79
2023/09/04 00:41:27;;;;;;;6.73;5.47;;;15.00;99.90;;;;;;5119521;27;20057;-79
2023/09/04 00:43:52;;;;;;;7.30;5.37;;;15.00;99.90;;;;;;5136193;27;20049;-79
2023/09/04 00:46:19;;;;;;;8.97;6.10;;;14.90;99.90;;;;;;5154966;27;20084;-79
2023/09/04 00:48:45;;;;;;;8.00;5.80;;;14.90;99.90;;;;;;5138132;27;20090;-80
2023/09/04 00:51:11;;;;;;;7.97;6.50;;;14.90;99.90;;;;;;5119154;27;20043;-79
2023/09/04 00:53:39;;;;;;;8.10;6.13;;;14.90;99.90;;;;;;5136532;27;20054;-79
2023/09/04 00:56:06;;;;;;;7.67;5.70;;;14.90;99.90;;;;;;5154573;27;20047;-79
2023/09/04 00:58:34;;;;;;;7.60;6.23;;;14.90;99.90;;;;;;5119299;27;20047;-79
2023/09/04 01:01:00;;;;;;;6.63;5.80;;;14.90;99.90;;;;;;5140626;27;20046;-79
2023/09/04 01:03:28;;;;;;;8.87;6.77;;;14.90;99.90;;;;;;5161509;27;20125;-79
2023/09/04 01:05:54;;;;;;;7.17;5.73;;;14.90;99.90;;;;;;5125796;27;20050;-80
2023/09/04 01:08:19;;;;;;;7.20;5.83;;;14.90;99.90;;;;;;5143059;27;20107;-79
2023/09/04 01:11:06;;;;;;;9.70;6.00;;;14.80;99.90;;;;;;5142712;27;20130;-79
2023/09/04 01:13:42;;;;;;;6.63;5.50;;;14.80;99.90;;;;;;5161768;27;20146;-79
2023/09/04 01:16:08;;;;;;;7.17;6.13;;;14.80;99.90;;;;;;5161259;27;20141;-79
2023/09/04 01:18:34;;;;;;;8.00;6.23;;;14.70;99.90;;;;;;5143072;27;20134;-80
2023/09/04 01:21:04;;;;;;;7.90;6.47;;;14.70;99.90;;;;;;5161114;27;20046;-79
2023/09/04 01:23:31;;;;;;;7.60;6.33;;;14.70;99.90;;;;;;5143161;27;20393;-79
2023/09/04 01:26:08;;;;;;;7.27;6.03;;;14.70;99.90;;;;;;5161164;27;20046;-80
2023/09/04 01:28:56;;;;;;;7.17;5.90;;;14.80;99.90;;;;;;5143244;27;20487;-80
2023/09/04 01:31:28;;;;;;;8.30;6.97;;;14.80;99.90;;;;;;5143397;27;20050;-79
2023/09/04 01:34:08;;;;;;;9.83;6.43;;;14.80;99.90;;;;;;5138298;27;20208;-80
2023/09/04 01:36:36;;;;;;;7.80;6.23;;;14.80;99.90;;;;;;5139590;27;20395;-79
2023/09/04 01:39:03;;;;;;;8.07;6.00;;;14.70;99.90;;;;;;5140164;27;20045;-79
2023/09/04 01:41:28;;;;;;;7.73;6.60;;;14.70;99.90;;;;;;5122603;27;20050;-79
2023/09/04 01:43:54;;;;;;;9.00;6.37;;;14.70;99.90;;;;;;5140126;27;20108;-79
2023/09/04 01:46:21;;;;;;;7.90;6.90;;;14.60;99.90;;;;;;5122356;27;20043;-79
2023/09/04 01:48:48;;;;;;;8.40;5.83;;;14.70;99.90;;;;;;5139094;27;20429;-79
2023/09/04 01:51:14;;;;;;;8.67;5.87;;;14.70;99.90;;;;;;5140476;27;20098;-79
2023/09/04 01:53:42;;;;;;;7.80;6.17;;;14.60;99.90;;;;;;5140341;27;20051;-79
2023/09/04 01:56:08;;;;;;;7.60;5.87;;;14.70;99.90;;;;;;5139037;27;20043;-79
2023/09/04 01:58:33;;;;;;;7.77;6.40;;;14.60;99.90;;;;;;5139542;27;20047;-79
2023/09/04 02:00:59;;;;;;;11.63;6.93;;;14.60;99.90;;;;;;5104689;27;20482;-78
2023/09/04 02:03:25;;;;;;;7.57;6.40;;;14.60;99.90;;;;;;5139453;27;20047;-78
2023/09/04 02:05:50;;;;;;;7.20;6.30;;;14.50;99.90;;;;;;5139812;27;20046;-79
2023/09/04 02:08:16;;;;;;;7.30;6.33;;;14.50;99.90;;;;;;5121999;27;20141;-79
2023/09/04 02:10:42;;;;;;;7.63;6.10;;;14.60;99.90;;;;;;5139412;27;20094;-79
2023/09/04 02:13:08;;;;;;;7.07;6.13;;;14.50;99.90;;;;;;5134324;27;20047;-79
2023/09/04 02:15:37;;;;;;;7.70;6.20;;;14.50;99.90;;;;;;5135827;27;20042;-79
2023/09/04 02:18:03;;;;;;;9.83;5.73;;;14.50;99.90;;;;;;5135600;27;20486;-79
2023/09/04 02:20:29;;;;;;;6.47;5.60;;;14.50;99.90;;;;;;5118626;27;20049;-79
2023/09/04 02:22:57;;;;;;;6.87;5.87;;;14.40;99.90;;;;;;5135343;27;20051;-80
2023/09/04 02:25:24;;;;;;;7.10;5.40;;;14.40;99.90;;;;;;5136699;27;20039;-79
2023/09/04 02:27:50;;;;;;;6.93;5.57;;;14.50;99.90;;;;;;5118558;27;20471;-79
2023/09/04 02:30:16;;;;;;;6.83;5.30;;;14.40;99.90;;;;;;5136368;27;20047;-79
2023/09/04 02:32:43;;;;;;;7.63;5.77;;;14.30;99.90;;;;;;5135119;27;20517;-79
2023/09/04 02:35:09;;;;;;;6.37;5.53;;;14.30;99.90;;;;;;5136187;27;20132;-80
2023/09/04 02:37:35;;;;;;;6.27;5.33;;;14.30;99.90;;;;;;5135352;27;20053;-77
2023/09/04 02:40:01;;;;;;;6.67;5.13;;;14.30;99.90;;;;;;5136148;27;20344;-77
2023/09/04 02:42:30;;;;;;;6.43;5.30;;;14.30;99.90;;;;;;5135402;27;20047;-77
2023/09/04 02:44:55;;;;;;;6.30;4.83;;;14.20;99.90;;;;;;5117988;27;20131;-78
2023/09/04 02:47:21;;;;;;;6.73;5.53;;;14.20;99.90;;;;;;5138443;27;20491;-77
2023/09/04 02:49:47;;;;;;;6.63;5.17;;;14.20;99.90;;;;;;5135116;27;20047;-77
2023/09/04 02:52:12;;;;;;;5.87;4.90;;;14.20;99.90;;;;;;5134848;27;20497;-77
2023/09/04 02:54:38;;;;;;;7.27;5.00;;;14.20;99.90;;;;;;5136309;27;20050;-79
2023/09/04 02:57:04;;;;;;;6.57;4.80;;;14.20;99.90;;;;;;5135000;27;20151;-80
2023/09/04 02:59:32;;;;;;;7.27;5.43;;;14.10;99.90;;;;;;5135115;27;20051;-79
2023/09/04 03:01:58;;;;;;;11.67;5.60;;;14.10;99.90;;;;;;5134625;27;20043;-80
2023/09/04 03:04:24;;;;;;;5.90;4.60;;;14.10;99.90;;;;;;5135021;27;20050;-80
2023/09/04 03:06:49;;;;;;;6.33;5.20;;;14.10;99.90;;;;;;5135903;27;20467;-79
2023/09/04 03:09:15;;;;;;;5.90;4.87;;;14.00;99.90;;;;;;5135403;27;20078;-80
2023/09/04 03:11:41;;;;;;;5.53;4.50;;;14.00;99.90;;;;;;5134654;27;20047;-79
2023/09/04 03:14:07;;;;;;;5.63;3.90;;;14.00;99.90;;;;;;5135355;27;20050;-80
2023/09/04 03:16:32;;;;;;;5.63;4.40;;;14.00;99.90;;;;;;5135727;27;20042;-80
2023/09/04 03:18:58;;;;;;;5.50;4.50;;;13.90;99.90;;;;;;5135680;27;20053;-79
2023/09/04 03:21:24;;;;;;;6.43;4.43;;;13.90;99.90;;;;;;5135802;27;20046;-80
2023/09/04 03:23:51;;;;;;;7.10;5.17;;;13.90;99.90;;;;;;5117294;27;20039;-80
2023/09/04 03:26:17;;;;;;;7.33;4.80;;;13.90;99.90;;;;;;5135151;27;20283;-77
2023/09/04 03:28:43;;;;;;;7.27;5.10;;;13.90;99.90;;;;;;5117427;27;20372;-77
2023/09/04 03:31:15;;;;;;;6.90;4.50;;;13.90;99.90;;;;;;5099912;27;20372;-80
2023/09/04 03:33:41;;;;;;;7.17;4.87;;;13.80;99.90;;;;;;5149396;27;20491;-80
2023/09/04 03:36:09;;;;;;;6.10;4.33;;;13.80;99.90;;;;;;5155776;27;20333;-80
2023/09/04 03:38:35;;;;;;;5.20;3.80;;;13.80;99.90;;;;;;5120630;27;20771;-80
2023/09/04 03:41:01;;;;;;;5.83;4.57;;;13.80;99.90;;;;;;5155896;27;20328;-80
2023/09/04 03:43:28;;;;;;;6.07;4.50;;;13.70;99.90;;;;;;5155828;27;20080;-80
2023/09/04 03:45:54;;;;;;;7.77;4.20;;;13.70;99.90;;;;;;5137509;27;20047;-79
2023/09/04 03:48:20;;;;;;;5.97;4.40;;;13.70;99.90;;;;;;5137168;27;20287;-79
2023/09/04 03:50:46;;;;;;;5.13;3.90;;;13.70;99.90;;;;;;5137329;27;20091;-79
2023/09/04 03:53:12;;;;;;;5.20;4.30;;;13.70;99.90;;;;;;5155486;27;20042;-79
2023/09/04 03:55:37;;;;;;;5.63;4.57;;;13.70;99.90;;;;;;5137221;27;20142;-80
2023/09/04 03:58:03;;;;;;;5.97;4.13;;;13.70;99.90;;;;;;5137070;27;20057;-77
2023/09/04 04:00:30;;;;;;;6.63;4.50;;;13.60;99.90;;;;;;5137349;27;20043;-77
2023/09/04 04:02:57;;;;;;;6.03;4.43;;;13.70;99.90;;;;;;5137144;27;20102;-78
2023/09/04 04:05:23;;;;;;;7.30;4.97;;;13.60;99.90;;;;;;5155214;27;20315;-77
2023/09/04 04:07:49;;;;;;;7.63;4.53;;;13.60;99.90;;;;;;5120111;27;20325;-77
2023/09/04 04:10:15;;;;;;;6.37;4.37;;;13.60;99.90;;;;;;5102893;27;20279;-77
2023/09/04 04:12:41;;;;;;;5.30;4.17;;;13.60;99.90;;;;;;5137162;27;20042;-78
2023/09/04 04:15:08;;;;;;;5.60;4.20;;;13.60;99.90;;;;;;5136518;27;20103;-78
2023/09/04 04:17:34;;;;;;;7.20;4.00;;;13.60;99.90;;;;;;5137085;27;20039;-77
2023/09/04 04:20:00;;;;;;;8.70;4.57;;;13.60;99.90;;;;;;5102977;27;20288;-77
2023/09/04 04:22:26;;;;;;;5.67;4.50;;;13.60;99.90;;;;;;5155056;27;20341;-78
2023/09/04 04:24:52;;;;;;;8.33;4.50;;;13.60;99.90;;;;;;5155138;27;20043;-78
2023/09/04 04:27:18;;;;;;;6.23;4.87;;;13.60;99.90;;;;;;5136537;27;20042;-78
2023/09/04 04:29:45;;;;;;;8.97;5.50;;;13.50;99.90;;;;;;5102771;27;20288;-78
2023/09/04 04:32:11;;;;;;;6.57;4.87;;;13.50;99.90;;;;;;5135946;27;20043;-78
2023/09/04 04:34:36;;;;;;;6.00;4.57;;;13.50;99.90;;;;;;5118995;27;20304;-78
2023/09/04 04:37:04;;;;;;;6.13;5.07;;;13.50;99.90;;;;;;5119416;27;20034;-78
2023/09/04 04:39:29;;;;;;;6.73;5.03;;;13.50;99.90;;;;;;5136092;27;20623;-78
2023/09/04 04:41:55;;;;;;;7.20;5.37;;;13.50;99.90;;;;;;5136467;27;20359;-78
2023/09/04 04:44:21;;;;;;;7.93;6.03;;;13.50;99.90;;;;;;5156854;27;20051;-78
2023/09/04 04:46:47;;;;;;;8.13;5.13;;;13.60;99.90;;;;;;5119587;27;20515;-77
2023/09/04 04:49:20;;;;;;;7.57;4.90;;;13.50;99.90;;;;;;5155027;27;20474;-78
2023/09/04 04:51:45;;;;;;;6.50;5.30;;;13.60;99.90;;;;;;5154891;27;20085;-77
2023/09/04 04:54:11;;;;;;;6.97;5.53;;;13.50;99.90;;;;;;5154398;27;20681;-77
2023/09/04 04:56:37;;;;;;;9.07;5.27;;;13.40;99.90;;;;;;5154745;27;20050;-77
2023/09/04 04:59:02;;;;;;;6.83;5.23;;;13.40;99.90;;;;;;5136414;27;20487;-78
2023/09/04 05:01:28;;;;;;;7.10;5.50;;;13.40;99.90;;;;;;5136179;27;20043;-78
2023/09/04 05:03:54;;;;;;;6.87;5.20;;;13.40;99.90;;;;;;5136413;27;20165;-78
2023/09/04 05:06:19;;;;;;;6.70;5.17;;;13.40;99.90;;;;;;5136061;27;20039;-78
2023/09/04 05:08:45;;;;;;;7.73;5.73;;;13.40;99.90;;;;;;5136399;27;20429;-78
2023/09/04 05:11:11;;;;;;;7.60;6.30;;;13.40;99.90;;;;;;5136340;27;20058;-78
2023/09/04 05:13:36;;;;;;;7.57;5.73;;;13.40;99.90;;;;;;5154240;27;20038;-78
2023/09/04 05:16:04;;;;;;;8.10;6.50;;;13.50;99.90;;;;;;5118843;27;20479;-78
2023/09/04 05:18:31;;;;;;;8.87;6.07;;;13.50;99.90;;;;;;5136247;27;20118;-78
2023/09/04 05:20:57;;;;;;;7.63;6.13;;;13.50;99.90;;;;;;5136305;27;20280;-78
2023/09/04 05:23:23;;;;;;;8.97;6.73;;;13.50;99.90;;;;;;5154372;27;20762;-79
2023/09/04 05:25:53;;;;;;;8.90;6.80;;;13.50;99.90;;;;;;5154423;27;20406;-78
2023/09/04 05:28:19;;;;;;;9.00;6.93;;;13.50;99.90;;;;;;5154276;27;20126;-79
2023/09/04 05:30:45;;;;;;;8.90;7.17;;;13.60;99.90;;;;;;5136291;27;20280;-78
2023/09/04 05:33:11;;;;;;;11.50;7.17;;;13.70;99.90;;;;;;5154019;27;20280;-78
2023/09/04 05:35:37;;;;;;;12.43;8.17;;;13.70;99.90;;;;;;5135585;27;20292;-78
2023/09/04 05:38:03;;;;;;;9.77;8.13;;;13.70;99.90;;;;;;5135549;27;20307;-78
2023/09/04 05:40:29;;;;;;;11.73;8.53;;;13.80;99.90;;;;;;5135778;27;20054;-78
2023/09/04 05:42:55;;;;;;;9.23;7.57;;;13.80;99.90;;;;;;5118934;27;20482;-78
2023/09/04 05:45:21;;;;;;;9.97;7.73;;;13.80;99.90;;;;;;5135403;27;20057;-78
2023/09/04 05:47:47;;;;;;;10.83;8.20;;;13.80;99.90;;;;;;5139435;27;20280;-78
2023/09/04 05:50:14;;;;;;;10.97;8.93;;;13.90;99.90;;;;;;5122569;27;20043;-78
2023/09/04 05:52:39;;;;;;;10.87;8.87;;;13.90;99.90;;;;;;5139605;27;20047;-78
2023/09/04 05:55:06;;;;;;;12.07;9.40;;;13.90;99.90;;;;;;5158101;27;20300;-78
2023/09/04 05:57:32;;;;;;;11.07;8.80;;;14.00;99.90;;;;;;5139668;27;20050;-79
2023/09/04 05:59:59;;;;;;;11.83;9.03;;;14.00;99.90;;;;;;5139383;27;20341;-79
2023/09/04 06:02:26;;;;;;;10.70;8.63;;;14.10;99.90;;;;;;5139398;27;20337;-79
2023/09/04 06:04:53;;;;;;;10.37;8.10;;;14.10;99.90;;;;;;5139785;27;20322;-79
2023/09/04 06:07:18;;;;;;;13.83;8.93;;;14.20;99.90;;;;;;5157849;27;20291;-79
2023/09/04 06:09:44;;;;;;;10.40;9.17;;;14.20;99.90;;;;;;5139199;27;20268;-79
2023/09/04 06:12:11;;;;;;;12.73;9.60;;;14.30;99.90;;;;;;5139173;27;20049;-78
2023/09/04 06:14:38;;;;;;;11.67;9.03;;;14.70;99.90;;;;;;5138999;27;20099;-78
2023/09/04 06:17:04;;;;;;;8.97;7.67;;;15.90;99.90;;;;;;5139044;27;20839;-79
2023/09/04 06:19:30;;;;;;;8.83;7.60;;;17.20;99.90;;;;;;5139010;27;20359;-79
2023/09/04 06:21:56;;;;;;;8.30;6.70;;;18.40;99.90;;;;;;5122099;27;20180;-79
2023/09/04 06:24:22;;;;;;;9.23;7.27;;;19.50;99.90;;;;;;5157482;27;20047;-79
2023/09/04 06:26:48;;;;;;;8.13;6.60;;;20.50;99.90;;;;;;5138999;27;20439;-79
2023/09/04 06:29:17;;;;;;;7.63;6.53;;;21.20;99.90;;;;;;5139135;27;20043;-79
2023/09/04 06:31:42;;;;;;;8.70;6.10;;;21.80;99.90;;;;;;5157144;27;20413;-79
2023/09/04 06:34:08;;;;;;;7.43;6.10;;;22.30;99.90;;;;;;5138680;27;20478;-78
2023/09/04 06:36:35;;;;;;;7.80;5.80;;;22.60;99.90;;;;;;5157094;27;20053;-78
2023/09/04 06:39:00;;;;;;;8.30;6.33;;;22.90;99.90;;;;;;5121958;27;20051;-78
2023/09/04 06:41:26;;;;;;;7.87;5.93;;;23.30;99.90;;;;;;5138700;27;20107;-79
2023/09/04 06:43:52;;;;;;;6.53;5.33;;;23.70;99.90;;;;;;5141660;27;20096;-79
2023/09/04 06:46:17;;;;;;;7.40;5.03;;;24.30;99.90;;;;;;5157269;27;20088;-78
2023/09/04 06:48:43;;;;;;;8.57;5.67;;;24.60;99.90;;;;;;5138270;27;20051;-78
2023/09/04 06:51:09;;;;;;;8.20;5.47;;;25.20;99.90;;;;;;5156792;27;20046;-79
2023/09/04 06:53:34;;;;;;;7.43;5.80;;;25.70;99.90;;;;;;5138545;27;20042;-78
2023/09/04 06:56:00;;;;;;;8.60;5.27;;;26.20;98.80;;;;;;5156549;27;20043;-78
2023/09/04 06:58:26;;;;;;;8.73;5.17;;;26.60;95.70;;;;;;5156154;27;20042;-80
2023/09/04 07:00:52;;;;;;;6.40;4.77;;;27.20;92.10;;;;;;5138506;27;20439;-78
2023/09/04 07:03:18;;;;;;;6.60;4.10;;;27.70;86.70;;;;;;5121555;27;20394;-78
2023/09/04 07:05:44;;;;;;;7.10;4.80;;;27.80;80.80;;;;;;5156560;27;20046;-78
2023/09/04 07:08:09;;;;;;;6.20;4.63;;;27.80;76.10;;;;;;5138397;27;20195;-78
2023/09/04 07:10:35;;;;;;;8.17;5.50;;;28.10;71.60;;;;;;5156424;27;20050;-78
2023/09/04 07:13:02;;;;;;;6.57;4.77;;;28.60;69.30;;;;;;5138200;27;20375;-79
2023/09/04 07:15:27;;;;;;;6.85;4.80;;;28.80;65.40;;;;;;5138099;27;20128;-78
2023/09/04 07:17:53;;;;;;;6.45;4.57;;;29.20;63.70;;;;;;5138202;27;20182;-78
2023/09/04 07:20:19;;;;;;;6.47;4.80;;;29.50;60.80;;;;;;5156466;27;20498;-78
2023/09/04 07:22:45;;;;;;;5.85;4.18;;;29.70;58.40;;;;;;5156160;27;20043;-76
2023/09/04 07:25:11;;;;;;;5.30;4.43;;;29.70;56.80;;;;;;5138254;27;20038;-76
2023/09/04 07:27:37;;;;;;;8.23;4.85;;;29.80;56.60;;;;;;5137499;27;20120;-76
2023/09/04 07:30:03;;;;;;;5.75;3.78;;;30.00;55.90;;;;;;5156266;27;20501;-75
2023/09/04 07:32:29;;;;;;;7.00;4.78;;;30.40;55.00;;;;;;5155966;27;20055;-77
2023/09/04 07:34:56;;;;;;;5.72;4.20;;;30.60;53.70;;;;;;5155972;27;20049;-77
2023/09/04 07:37:28;;;;;;;6.90;4.40;;;31.10;53.30;;;;;;5137764;27;20549;-76
2023/09/04 07:39:54;;;;;;;5.55;3.88;;;31.00;50.50;;;;;;5155747;27;20038;-77
2023/09/04 07:42:21;;;;;;;6.78;4.50;;;31.00;51.90;;;;;;5137238;27;20498;-76
2023/09/04 07:44:47;;;;;;;6.07;3.80;;;31.10;51.80;;;;;;5155596;27;20046;-77
2023/09/04 07:47:13;;;;;;;4.55;3.30;;;31.30;51.30;;;;;;5156089;27;20042;-76
2023/09/04 07:49:39;;;;;;;7.20;4.05;;;31.30;51.00;;;;;;5155515;27;20118;-76
2023/09/04 07:52:04;;;;;;;5.55;3.75;;;30.90;51.20;;;;;;5155742;27;20501;-76
2023/09/04 07:54:30;;;;;;;5.00;3.72;;;30.20;51.50;;;;;;5155601;27;20078;-75
2023/09/04 07:56:56;;;;;;;6.10;3.65;;;29.10;53.00;;;;;;5155401;27;20039;-69
2023/09/04 07:59:22;;;;;;;4.90;3.80;;;28.20;55.20;;;;;;5155646;27;20047;-75
2023/09/04 08:01:48;;;;;;;6.05;3.60;;;27.40;57.80;;;;;;5137041;27;20053;-76
2023/09/04 08:04:14;;;;;;;5.53;3.78;;;26.70;61.30;;;;;;5137549;27;20390;-75
2023/09/04 08:06:39;;;;;;;6.72;4.25;;;26.10;65.90;;;;;;5136621;27;20043;-76
2023/09/04 08:09:05;;;;;;;4.97;3.50;;;25.60;79.10;;;;;;5137233;27;20050;-76
2023/09/04 08:11:31;;;;;;;5.75;3.60;;;25.20;83.20;;;;;;5154737;27;20052;-75
2023/09/04 08:13:57;;;;;;;6.93;3.78;;;24.80;88.80;;;;;;5154748;27;20099;-72
2023/09/04 08:16:23;;;;;;;4.78;3.10;;;24.40;91.90;;;;;;5155107;27;20042;-79
2023/09/04 08:18:49;;;;;;;5.30;3.70;;;24.20;88.40;;;;;;5154934;27;20413;-77
2023/09/04 08:21:14;;;;;;;5.18;3.58;;;24.00;95.00;;;;;;5155401;27;20046;-76
2023/09/04 08:23:40;;;;;;;4.70;3.27;;;23.80;96.40;;;;;;5154837;27;20129;-75
2023/09/04 08:26:06;;;;;;;5.73;3.50;;;23.70;97.80;;;;;;5137072;27;20043;-74
2023/09/04 08:28:33;;;;;;;6.73;3.13;;;23.60;97.70;;;;;;5154532;27;20046;-73
2023/09/04 08:30:58;;;;;;;4.50;3.20;;;23.30;99.30;;;;;;5154284;27;20126;-69
2023/09/04 08:33:24;;;;;;;6.53;3.03;;;23.10;99.90;;;;;;5154590;27;20082;-69
2023/09/04 08:35:50;;;;;;;6.00;2.80;;;22.90;99.90;;;;;;5135778;27;20038;-73
2023/09/04 08:38:15;;;;;;;5.50;3.17;;;22.80;99.90;;;;;;5136614;27;20043;-72
2023/09/04 08:40:41;;;;;;;5.63;3.10;;;22.60;99.90;;;;;;5136114;27;20038;-75
2023/09/04 08:43:08;;;;;;;5.13;2.73;;;22.60;99.90;;;;;;5122633;27;20051;-74
2023/09/04 08:45:36;;;;;;;5.73;3.07;;;22.50;99.90;;;;;;5147913;27;20046;-74
2023/09/04 08:48:03;;;;;;;4.73;2.70;;;22.50;99.90;;;;;;5133819;27;20043;-73
2023/09/04 08:50:30;;;;;;;6.13;3.10;;;22.20;99.90;;;;;;5099364;27;20055;-73
2023/09/04 08:52:56;;;;;;;6.13;3.03;;;22.30;99.90;;;;;;5133596;27;20126;-74
2023/09/04 08:55:22;;;;;;;6.03;3.13;;;22.10;99.90;;;;;;5134162;27;20580;-74
2023/09/04 08:57:48;;;;;;;5.03;3.07;;;22.10;99.90;;;;;;5133697;27;20156;-74
2023/09/04 09:00:15;;;;;;;8.90;3.73;;;22.00;99.90;;;;;;5115876;28;20134;-75
2023/09/04 09:02:45;;;;;;;5.57;2.70;;;22.00;99.90;;;;;;5148081;27;20053;-74
2023/09/04 09:05:16;;;;;;;7.03;3.03;;;22.00;99.90;;;;;;5154951;27;20035;-74
2023/09/04 09:07:43;;;;;;;5.80;2.70;;;22.10;99.90;;;;;;5154654;27;20121;-74
2023/09/04 09:10:14;;;;;;;4.80;2.83;;;22.00;99.90;;;;;;5136127;27;20043;-74
2023/09/04 09:12:39;;;;;;;6.40;3.07;;;22.00;99.90;;;;;;5149456;27;20125;-75
2023/09/04 09:15:05;;;;;;;4.17;2.20;;;22.10;99.90;;;;;;5135797;27;20129;-74
2023/09/04 09:17:31;;;;;;;5.17;2.57;;;22.00;99.90;;;;;;5154502;27;20099;-74
2023/09/04 09:19:57;;;;;;;5.30;2.73;;;22.10;99.90;;;;;;5135985;27;20055;-74
2023/09/04 09:22:23;;;;;;;5.50;2.30;;;22.10;99.90;;;;;;5154537;27;20486;-75
2023/09/04 09:24:59;;;;;;;5.23;2.60;;;22.10;99.90;;;;;;5102420;27;20074;-74
2023/09/04 09:27:30;;;;;;;5.37;2.60;;;22.00;99.90;;;;;;5157358;27;20051;-73
2023/09/04 09:30:00;;;;;;;5.40;3.00;;;22.00;99.90;;;;;;5158455;27;20085;-74
2023/09/04 09:32:33;;;;;;;7.83;2.53;;;22.00;99.90;;;;;;5140200;27;20383;-73
2023/09/04 09:35:00;;;;;;;5.70;2.60;;;22.00;99.90;;;;;;5155374;27;20125;-73
2023/09/04 09:37:30;;;;;;;6.40;2.47;;;22.00;99.90;;;;;;5155304;27;20047;-74
2023/09/04 09:39:55;;;;;;;4.97;2.60;;;22.00;99.90;;;;;;5139053;27;20046;-74
2023/09/04 09:42:23;;;;;;;5.07;2.67;;;22.10;99.90;;;;;;5158366;27;20043;-73
2023/09/04 09:44:51;;;;;;;4.37;2.50;;;22.00;99.90;;;;;;5135934;27;20105;-74
2023/09/04 09:47:17;;;;;;;5.93;2.23;;;21.90;99.90;;;;;;5130870;27;20126;-74
2023/09/04 09:49:43;;;;;;;5.23;2.40;;;21.90;99.90;;;;;;5119210;27;20444;-73
2023/09/04 09:52:11;;;;;;;3.57;2.10;;;22.00;99.90;;;;;;5102025;27;20057;-74
2023/09/04 09:54:37;;;;;;;4.60;2.40;;;22.00;99.90;;;;;;5137509;27;20453;-74
2023/09/04 09:57:15;;;;;;;4.13;2.30;;;22.00;99.90;;;;;;5118658;27;20043;-74
2023/09/04 09:59:46;;;;;;;4.83;2.50;;;22.00;99.90;;;;;;5134963;27;20116;-73
2023/09/04 10:02:18;;;;;;;6.13;2.83;;;22.00;99.90;;;;;;5118933;27;20362;-74
2023/09/04 10:04:44;;;;;;;6.17;2.53;;;22.00;99.90;;;;;;5119090;27;20054;-74
2023/09/04 10:07:25;;;;;;;5.43;2.93;;;22.10;99.90;;;;;;5101825;27;20121;-74
2023/09/04 10:10:05;;;;;;;7.10;2.70;;;22.10;99.90;;;;;;5120596;27;20047;-75
2023/09/04 10:12:41;;;;;;;6.03;2.23;;;22.20;99.90;;;;;;5136969;27;20043;-73
2023/09/04 10:15:07;;;;;;;5.27;2.37;;;22.10;99.90;;;;;;5136641;27;20050;-73
2023/09/04 10:17:39;;;;;;;4.77;2.23;;;22.20;99.90;;;;;;5136849;27;20043;-72
2023/09/04 10:20:06;;;;;;;4.50;2.27;;;22.20;99.90;;;;;;5152835;27;20042;-74
2023/09/04 10:22:40;;;;;;;3.67;2.00;;;22.30;99.90;;;;;;5157472;27;20486;-72
2023/09/04 10:25:40;;;;;;;4.80;1.93;;;22.30;99.90;;;;;;5138703;27;20046;-74
2023/09/04 10:28:11;;;;;;;3.80;2.30;;;22.30;99.90;;;;;;5138987;27;20546;-75
2023/09/04 10:30:41;;;;;;;4.50;2.30;;;22.40;99.90;;;;;;5139131;27;20051;-74
2023/09/04 10:33:08;;;;;;;4.33;2.40;;;22.30;99.90;;;;;;5155728;27;20061;-74
2023/09/04 10:35:34;;;;;;;4.50;2.00;;;22.30;99.90;;;;;;5157480;27;20051;-75
2023/09/04 10:38:00;;;;;;;5.20;2.57;;;22.40;99.90;;;;;;5138765;27;20482;-75
2023/09/04 10:40:28;;;;;;;6.50;2.40;;;22.40;99.90;;;;;;5140367;27;20047;-77
2023/09/04 10:42:56;;;;;;;5.53;2.47;;;22.40;99.90;;;;;;5138698;27;20043;-76
2023/09/04 10:45:22;;;;;;;3.40;2.20;;;22.40;99.90;;;;;;5138716;27;20498;-69
2023/09/04 10:47:52;;;;;;;5.53;2.30;;;22.40;99.90;;;;;;5157243;27;20054;-77
2023/09/04 10:50:39;;;;;;;4.83;2.40;;;22.40;99.90;;;;;;5156746;27;20047;-73
2023/09/04 10:53:06;;;;;;;3.37;1.87;;;22.50;99.90;;;;;;5156718;27;20385;-75
2023/09/04 10:55:36;;;;;;;6.23;2.63;;;22.50;99.90;;;;;;5137638;27;20090;-75
2023/09/04 10:58:04;;;;;;;6.47;2.20;;;22.50;99.90;;;;;;5156460;27;20042;-76
2023/09/04 11:00:35;;;;;;;5.77;2.50;;;22.50;99.90;;;;;;5157271;27;20046;-76
2023/09/04 11:03:23;;;;;;;4.07;2.07;;;22.50;99.90;;;;;;5156855;27;20443;-76
2023/09/04 11:06:09;;;;;;;5.33;2.67;;;22.50;99.90;;;;;;5138555;27;20049;-75
2023/09/04 11:08:38;;;;;;;4.70;2.17;;;22.60;99.90;;;;;;5138896;27;20070;-76
2023/09/04 11:11:08;;;;;;;3.83;2.20;;;22.60;99.90;;;;;;5138088;27;20050;-76
2023/09/04 11:13:39;;;;;;;5.70;2.20;;;22.60;99.90;;;;;;5138156;27;20094;-75
2023/09/04 11:16:07;;;;;;;4.77;2.43;;;22.60;99.90;;;;;;5120838;27;20042;-76
2023/09/04 11:18:35;;;;;;;4.90;2.30;;;22.60;99.90;;;;;;5156595;27;20486;-76
2023/09/04 11:21:01;;;;;;;3.50;2.00;;;22.60;99.90;;;;;;5138195;27;20042;-76
2023/09/04 11:23:28;;;;;;;4.43;2.40;;;22.60;99.90;;;;;;5157158;27;20053;-76
2023/09/04 11:25:55;;;;;;;4.20;2.60;;;22.50;99.90;;;;;;5138107;27;20084;-76
2023/09/04 11:28:26;;;;;;;5.57;2.60;;;22.50;99.90;;;;;;5155933;27;20363;-76
2023/09/04 11:30:57;;;;;;;4.27;2.50;;;22.50;99.90;;;;;;5138378;27;20129;-76
2023/09/04 11:33:31;;;;;;;4.73;2.40;;;22.50;99.90;;;;;;5137435;27;20083;-75
2023/09/04 11:36:05;;;;;;;6.07;2.22;;;22.50;99.90;;;;;;5120839;27;20050;-75
2023/09/04 11:38:33;;;;;;;4.35;2.58;;;22.60;99.90;;;;;;5156251;27;20082;-75
2023/09/04 11:41:05;;;;;;;3.47;2.00;;;22.50;99.90;;;;;;5138015;27;20042;-75
2023/09/04 11:43:30;;;;;;;3.57;1.93;;;22.60;99.90;;;;;;5138297;27;20046;-75
2023/09/04 11:45:56;;;;;;;5.03;2.47;;;22.60;99.90;;;;;;5156014;27;20039;-75
2023/09/04 11:48:26;;;;;;;4.67;2.50;;;22.70;99.90;;;;;;5137674;27;20074;-75
2023/09/04 11:50:53;;;;;;;3.67;2.00;;;22.70;99.90;;;;;;5138036;27;20054;-75
2023/09/04 11:53:21;;;;;;;3.80;1.90;;;22.70;99.90;;;;;;5155727;27;20085;-75
2023/09/04 11:55:47;;;;;;;3.43;2.00;;;22.70;99.90;;;;;;5155911;27;20042;-76
2023/09/04 11:58:13;;;;;;;3.57;2.10;;;22.80;99.90;;;;;;5155654;27;20047;-76
2023/09/04 12:00:41;;;;;;;3.77;2.00;;;22.80;99.90;;;;;;5137394;27;20042;-76
2023/09/04 12:03:07;;;;;;;5.93;2.53;;;22.80;99.90;;;;;;5155637;27;20577;-76
2023/09/04 12:05:35;;;;;;;5.87;2.70;;;22.80;99.90;;;;;;5155835;27;20129;-76
2023/09/04 12:08:02;;;;;;;4.10;2.20;;;22.80;99.90;;;;;;5155647;27;20165;-76
2023/09/04 12:10:28;;;;;;;4.93;2.30;;;22.80;99.90;;;;;;5155425;27;20050;-72
2023/09/04 12:12:54;;;;;;;5.50;2.80;;;22.90;99.90;;;;;;5155153;27;20404;-72
2023/09/04 12:15:28;;;;;;;5.00;2.07;;;22.90;99.90;;;;;;5155085;27;20128;-75
2023/09/04 12:17:54;;;;;;;3.70;1.92;;;22.90;99.90;;;;;;5137103;27;20086;-74
2023/09/04 12:20:20;;;;;;;3.90;2.20;;;22.80;99.90;;;;;;5155134;27;20050;-74
2023/09/04 12:22:59;;;;;;;3.77;2.20;;;22.90;99.90;;;;;;5155231;27;20043;-73
2023/09/04 12:25:32;;;;;;;4.20;1.90;;;22.90;99.90;;;;;;5136773;27;20050;-71
2023/09/04 12:27:57;;;;;;;4.77;1.93;;;23.00;99.90;;;;;;5155205;27;20055;-74
2023/09/04 12:30:24;;;;;;;4.43;1.97;;;23.00;99.90;;;;;;5136256;27;20043;-74
2023/09/04 12:32:50;;;;;;;3.70;1.93;;;23.00;99.90;;;;;;5136420;27;20062;-74
2023/09/04 12:35:19;;;;;;;5.97;2.30;;;23.10;99.90;;;;;;5154504;27;20043;-74
2023/09/04 12:37:45;;;;;;;3.20;1.80;;;23.10;99.70;;;;;;5155166;27;20095;-74
2023/09/04 12:40:11;;;;;;;3.50;2.00;;;23.10;99.90;;;;;;5154794;27;20057;-74
2023/09/04 12:42:38;;;;;;;3.83;1.90;;;23.00;99.90;;;;;;5136705;27;20054;-74
2023/09/04 12:45:06;;;;;;;4.50;1.70;;;23.10;99.20;;;;;;5136782;27;20046;-74